Terminal Aerodrome Forecast
Issued by NWS

Home | Current Version | Previous Version | Text Only | Print | Product List | Glossary On
Versions: 1 2 3 4 5 6 7 8 9 10 11 12 13 14 15 16 17 18 19 20 21 22 23 24 25 26 27 28 29 30 31 32 33 34 35 36 37 38 39 40 41 42 43 44 45 46 47 48 49 50
023
FTUS44 KHGX 261355 AAA
TAFLBX
TAF AMD
KLBX 261355Z 2614/2712 17008KT P6SM BKN015 BKN025 OVC100
     FM261600 16015KT P6SM SCT025 BKN035
     FM262100 14015G21KT P6SM VCSH BKN025
     FM270300 15014KT P6SM BKN015
     FM270900 17012KT P6SM OVC015=

USA.gov is the U.S. government's official web portal to all federal, state and local government web resources and services.